createdAt,value
2019-05-09T00:00:43.881Z,90.40
2019-05-09T00:03:13.952Z,90.40
2019-05-09T00:05:44.146Z,90.70
2019-05-09T00:08:14.127Z,90.50
2019-05-09T00:10:44.934Z,90.60
2019-05-09T00:13:14.792Z,90.80
2019-05-09T00:15:44.297Z,90.60
2019-05-09T00:18:15.385Z,90.60
2019-05-09T00:20:53.967Z,90.70
2019-05-09T00:23:24.033Z,90.80
2019-05-09T00:25:56.674Z,90.90
2019-05-09T00:28:27.896Z,91.00
2019-05-09T00:31:03.401Z,90.90
2019-05-09T00:33:34.315Z,90.80
2019-05-09T00:36:05.712Z,91.10
2019-05-09T00:38:39.508Z,90.70
2019-05-09T00:41:13.775Z,90.70
2019-05-09T00:43:44.340Z,90.70
2019-05-09T00:46:24.721Z,90.60
2019-05-09T00:49:01.634Z,90.70
2019-05-09T00:51:31.084Z,90.80
2019-05-09T00:54:00.510Z,90.90
2019-05-09T00:56:29.912Z,90.90
2019-05-09T00:58:59.394Z,91.00
2019-05-09T01:01:28.856Z,91.00
2019-05-09T01:03:58.355Z,91.00
2019-05-09T01:06:27.845Z,91.00
2019-05-09T01:08:57.319Z,91.00
2019-05-09T01:11:26.833Z,91.20
2019-05-09T01:13:56.339Z,91.10
2019-05-09T01:16:25.796Z,91.30
2019-05-09T01:18:55.435Z,91.40
2019-05-09T01:21:24.863Z,91.40
2019-05-09T01:23:55.505Z,91.60
2019-05-09T01:26:24.959Z,91.60
2019-05-09T01:28:54.447Z,91.40
2019-05-09T01:31:24.631Z,91.60
2019-05-09T01:34:03.967Z,91.50
2019-05-09T01:36:54.009Z,91.30
2019-05-09T01:39:24.212Z,91.20
2019-05-09T01:41:53.205Z,91.70
2019-05-09T01:44:25.430Z,91.60
2019-05-09T01:46:57.778Z,91.60
2019-05-09T01:49:27.321Z,91.80
2019-05-09T01:51:56.796Z,91.70
2019-05-09T01:54:27.593Z,92.10
2019-05-09T01:56:57.228Z,91.80
2019-05-09T01:59:26.719Z,92.10
2019-05-09T02:01:56.274Z,92.00
2019-05-09T02:04:25.769Z,92.20
2019-05-09T02:06:55.342Z,92.40
2019-05-09T02:09:24.827Z,92.20
2019-05-09T02:11:54.680Z,91.90
2019-05-09T02:14:38.896Z,91.90
2019-05-09T02:17:10.002Z,91.70
2019-05-09T02:19:43.936Z,91.90
2019-05-09T02:22:34.524Z,91.90
2019-05-09T02:25:09.932Z,91.80
2019-05-09T02:27:39.470Z,91.80
2019-05-09T02:30:14.695Z,91.80
2019-05-09T02:32:44.719Z,91.80
2019-05-09T02:35:14.007Z,91.90
2019-05-09T02:37:43.479Z,91.80
2019-05-09T02:40:13.189Z,92.00
2019-05-09T02:42:42.730Z,91.80
2019-05-09T02:45:13.379Z,91.70
2019-05-09T02:47:42.760Z,91.70
2019-05-09T02:50:12.891Z,91.90
2019-05-09T02:52:42.385Z,91.60
2019-05-09T02:55:11.937Z,91.50
2019-05-09T02:57:41.499Z,91.60
2019-05-09T03:00:30.391Z,91.80
2019-05-09T03:03:04.280Z,91.80
2019-05-09T03:05:33.778Z,91.60
2019-05-09T03:08:05.188Z,91.50
2019-05-09T03:10:34.756Z,91.70
2019-05-09T03:13:04.335Z,91.70
2019-05-09T03:15:34.939Z,91.70
2019-05-09T03:18:04.562Z,91.70
2019-05-09T03:20:39.388Z,91.70
2019-05-09T03:23:11.739Z,91.70
2019-05-09T03:25:41.306Z,91.70
2019-05-09T03:28:18.145Z,91.90
2019-05-09T03:30:50.105Z,92.00
2019-05-09T03:33:20.308Z,91.70
2019-05-09T03:35:50.032Z,91.90
2019-05-09T03:38:19.428Z,91.80
2019-05-09T03:40:49.012Z,91.60
2019-05-09T03:43:18.514Z,91.50
2019-05-09T03:45:52.526Z,91.60
2019-05-09T03:48:41.961Z,91.60
2019-05-09T03:51:11.425Z,91.60
2019-05-09T03:53:40.914Z,91.90
2019-05-09T03:56:12.059Z,91.70
2019-05-09T03:58:41.564Z,91.70
2019-05-09T04:01:11.098Z,91.50
2019-05-09T04:03:40.531Z,91.30
2019-05-09T04:06:10.041Z,91.30
2019-05-09T04:08:39.567Z,91.30
2019-05-09T04:11:09.045Z,91.30
2019-05-09T04:13:42.841Z,91.50
2019-05-09T04:16:12.399Z,91.80
2019-05-09T04:18:41.869Z,91.70
2019-05-09T04:21:11.425Z,91.50
2019-05-09T04:23:40.891Z,91.60
2019-05-09T04:26:14.759Z,91.70
2019-05-09T04:28:44.220Z,91.80
2019-05-09T04:31:13.725Z,92.10
2019-05-09T04:33:43.173Z,92.10
2019-05-09T04:36:12.689Z,92.00
2019-05-09T04:38:42.163Z,92.30
2019-05-09T04:41:18.394Z,92.20
2019-05-09T04:43:44.183Z,92.30
2019-05-09T04:46:17.883Z,92.40
2019-05-09T04:48:43.913Z,92.40
2019-05-09T04:51:13.479Z,92.30
2019-05-09T04:53:42.939Z,92.40
2019-05-09T04:56:17.645Z,92.40
2019-05-09T04:58:48.193Z,92.30
2019-05-09T05:01:19.823Z,92.50
2019-05-09T05:03:51.242Z,92.50
2019-05-09T05:06:21.022Z,92.60
2019-05-09T05:08:50.464Z,92.50
2019-05-09T05:11:21.535Z,92.60
2019-05-09T05:13:50.985Z,92.50
2019-05-09T05:16:20.457Z,92.60
2019-05-09T05:18:50.044Z,92.50
2019-05-09T05:21:20.473Z,92.40
2019-05-09T05:23:54.818Z,92.50
2019-05-09T05:26:27.550Z,92.40
2019-05-09T05:28:58.576Z,92.50
2019-05-09T05:31:28.660Z,92.40
2019-05-09T05:34:00.120Z,92.50
2019-05-09T05:36:29.620Z,92.20
2019-05-09T05:38:59.130Z,92.30
2019-05-09T05:41:28.740Z,92.20
2019-05-09T05:43:58.247Z,92.30
2019-05-09T05:46:50.865Z,91.80
2019-05-09T05:49:20.269Z,92.20
2019-05-09T05:52:05.203Z,92.10
2019-05-09T05:54:34.536Z,92.10
2019-05-09T05:57:04.109Z,91.90
2019-05-09T05:59:36.931Z,91.90
2019-05-09T06:02:04.912Z,92.00
2019-05-09T06:04:34.381Z,91.90
2019-05-09T06:07:03.985Z,91.40
2019-05-09T06:09:33.869Z,91.50
2019-05-09T06:12:03.500Z,91.60
2019-05-09T06:14:32.968Z,91.60
2019-05-09T06:17:02.477Z,91.30
2019-05-09T06:19:31.951Z,91.30
2019-05-09T06:22:01.444Z,91.30
2019-05-09T06:24:30.903Z,91.20
2019-05-09T06:27:00.399Z,91.30
2019-05-09T06:29:29.934Z,90.90
2019-05-09T06:31:59.439Z,91.00
2019-05-09T06:37:08.991Z,90.50
2019-05-09T06:39:38.522Z,90.60
2019-05-09T06:42:09.227Z,90.90
2019-05-09T06:44:58.322Z,90.50
2019-05-09T06:47:30.123Z,90.70
2019-05-09T06:50:01.325Z,90.40
2019-05-09T06:52:30.822Z,90.00
2019-05-09T06:55:00.339Z,88.40
2019-05-09T06:57:29.851Z,89.30
2019-05-09T06:59:59.393Z,89.70
2019-05-09T07:02:38.715Z,90.30
2019-05-09T07:05:24.428Z,89.30
2019-05-09T07:07:57.499Z,87.90
2019-05-09T07:10:28.397Z,88.50
2019-05-09T07:12:58.487Z,88.20
2019-05-09T07:15:28.373Z,87.30
2019-05-09T07:17:59.259Z,88.80
2019-05-09T07:20:28.504Z,87.90
2019-05-09T07:22:59.027Z,87.90
2019-05-09T07:25:39.133Z,87.30
2019-05-09T07:28:08.570Z,87.40
2019-05-09T07:30:42.571Z,84.90
2019-05-09T07:33:22.675Z,86.20
2019-05-09T07:35:52.211Z,85.70
2019-05-09T07:38:31.928Z,86.00
2019-05-09T07:41:01.709Z,84.70
2019-05-09T07:43:31.284Z,84.70
2019-05-09T07:46:18.742Z,85.00
2019-05-09T07:48:52.963Z,80.90
2019-05-09T07:51:22.543Z,82.80
2019-05-09T07:53:52.086Z,81.10
2019-05-09T07:56:22.102Z,83.90
2019-05-09T07:58:53.152Z,82.10
2019-05-09T08:01:22.693Z,81.20
2019-05-09T08:03:52.268Z,81.60
2019-05-09T08:06:21.898Z,79.30
2019-05-09T08:08:51.427Z,77.30
2019-05-09T08:11:20.983Z,79.70
2019-05-09T08:13:50.473Z,78.00
2019-05-09T08:16:20.008Z,76.60
2019-05-09T08:18:49.510Z,78.60
2019-05-09T08:21:18.970Z,75.50
2019-05-09T08:23:48.714Z,78.00
2019-05-09T08:26:18.874Z,78.00
2019-05-09T08:28:51.526Z,78.30
2019-05-09T08:31:21.044Z,79.00
2019-05-09T08:33:50.520Z,78.70
2019-05-09T08:36:20.389Z,74.70
2019-05-09T08:38:49.941Z,74.00
2019-05-09T08:41:19.614Z,75.00
2019-05-09T08:43:49.136Z,75.60
2019-05-09T08:46:18.731Z,73.60
2019-05-09T08:48:48.676Z,74.60
2019-05-09T08:51:21.056Z,74.30
2019-05-09T08:53:50.540Z,74.50
2019-05-09T08:56:20.103Z,74.70
2019-05-09T08:58:49.565Z,73.20
2019-05-09T09:01:30.266Z,72.30
2019-05-09T09:03:51.083Z,70.30
2019-05-09T09:06:20.585Z,74.50
2019-05-09T09:08:50.073Z,71.70
2019-05-09T09:11:19.606Z,73.10
2019-05-09T09:13:49.284Z,70.60
2019-05-09T09:16:22.586Z,71.90
2019-05-09T09:18:54.397Z,70.70
2019-05-09T09:21:24.975Z,73.30
2019-05-09T09:23:54.541Z,72.00
2019-05-09T09:26:24.171Z,66.40
2019-05-09T09:28:57.754Z,66.00
2019-05-09T09:31:30.131Z,67.10
2019-05-09T09:33:59.889Z,68.70
2019-05-09T09:36:29.277Z,65.90
2019-05-09T09:38:58.808Z,67.50
2019-05-09T09:41:28.897Z,69.90
2019-05-09T09:43:58.508Z,63.30
2019-05-09T09:46:28.708Z,64.40
2019-05-09T09:48:58.957Z,63.00
2019-05-09T09:51:28.448Z,63.60
2019-05-09T09:53:58.404Z,63.60
2019-05-09T09:56:28.439Z,62.40
2019-05-09T09:58:59.667Z,61.10
2019-05-09T10:01:31.059Z,61.10
2019-05-09T10:04:23.998Z,60.80
2019-05-09T10:06:52.853Z,60.00
2019-05-09T10:09:19.899Z,60.20
2019-05-09T10:11:49.424Z,56.70
2019-05-09T10:14:20.573Z,53.40
2019-05-09T10:17:00.725Z,57.60
2019-05-09T10:19:38.453Z,58.60
2019-05-09T10:22:22.358Z,56.70
2019-05-09T10:24:47.875Z,55.90
2019-05-09T10:27:18.517Z,55.40
2019-05-09T10:29:48.158Z,57.60
2019-05-09T10:32:18.351Z,57.90
2019-05-09T10:34:48.809Z,58.90
2019-05-09T10:37:19.667Z,58.80
2019-05-09T10:39:49.335Z,59.60
2019-05-09T10:42:23.596Z,55.80
2019-05-09T10:44:58.259Z,51.00
2019-05-09T10:47:32.497Z,55.00
2019-05-09T10:50:03.786Z,56.90
2019-05-09T10:52:33.275Z,55.70
2019-05-09T10:55:02.764Z,54.40
2019-05-09T10:57:32.700Z,52.50
2019-05-09T11:00:02.650Z,54.80
2019-05-09T11:02:32.592Z,56.20
2019-05-09T11:05:02.122Z,54.80
2019-05-09T11:07:31.711Z,55.60
2019-05-09T11:10:01.181Z,55.80
2019-05-09T11:12:30.808Z,57.00
2019-05-09T11:15:00.286Z,57.30
2019-05-09T11:17:29.862Z,55.70
2019-05-09T11:19:59.354Z,55.70
2019-05-09T11:22:29.435Z,56.30
2019-05-09T11:24:58.989Z,57.20
2019-05-09T11:27:29.282Z,55.60
2019-05-09T11:29:58.890Z,55.40
2019-05-09T11:32:28.779Z,56.20
2019-05-09T11:34:58.330Z,57.00
2019-05-09T11:37:29.234Z,56.70
2019-05-09T11:39:58.705Z,57.40
2019-05-09T11:42:28.668Z,57.00
2019-05-09T11:44:59.760Z,57.20
2019-05-09T11:47:38.213Z,56.40
2019-05-09T11:50:00.346Z,56.30
2019-05-09T11:52:29.829Z,57.10
2019-05-09T11:54:59.308Z,58.40
2019-05-09T11:57:31.538Z,57.40
2019-05-09T12:00:00.107Z,58.90
2019-05-09T12:02:29.707Z,57.00
2019-05-09T12:04:59.157Z,57.30
2019-05-09T12:07:28.943Z,59.40
2019-05-09T12:09:58.922Z,59.60
2019-05-09T12:12:30.353Z,58.60
2019-05-09T12:14:59.858Z,59.80
2019-05-09T12:17:40.770Z,59.10
2019-05-09T12:20:09.558Z,59.80
2019-05-09T12:22:31.736Z,61.00
2019-05-09T12:25:01.342Z,62.50
2019-05-09T12:27:30.886Z,62.20
2019-05-09T12:30:01.473Z,59.70
2019-05-09T12:32:31.117Z,60.80
2019-05-09T12:35:00.956Z,58.60
2019-05-09T12:37:30.477Z,59.40
2019-05-09T12:40:00.881Z,60.70
2019-05-09T12:42:30.436Z,59.40
2019-05-09T12:44:59.935Z,62.20
2019-05-09T12:47:29.608Z,60.40
2019-05-09T12:50:02.684Z,60.30
2019-05-09T12:52:31.479Z,58.20
2019-05-09T12:55:01.057Z,58.70
2019-05-09T12:57:30.629Z,59.60
2019-05-09T13:00:01.078Z,58.90
2019-05-09T13:02:30.747Z,58.70
2019-05-09T13:05:00.207Z,59.00
2019-05-09T13:07:31.295Z,59.90
2019-05-09T13:10:00.749Z,60.60
2019-05-09T13:12:31.335Z,62.10
2019-05-09T13:15:04.028Z,59.40
2019-05-09T13:17:41.439Z,60.20
2019-05-09T13:20:12.147Z,58.10
2019-05-09T13:22:41.760Z,57.80
2019-05-09T13:25:11.362Z,57.10
2019-05-09T13:27:40.879Z,56.40
2019-05-09T13:30:10.773Z,59.60
2019-05-09T13:32:40.262Z,57.90
2019-05-09T13:35:10.187Z,58.00
2019-05-09T13:37:40.189Z,58.30
2019-05-09T13:40:11.378Z,57.00
2019-05-09T13:42:42.388Z,57.30
2019-05-09T13:45:11.942Z,56.90
2019-05-09T13:47:41.444Z,58.30
2019-05-09T13:50:11.242Z,57.70
2019-05-09T13:52:40.846Z,59.70
2019-05-09T13:55:10.470Z,59.10
2019-05-09T13:57:40.120Z,58.90
2019-05-09T14:00:11.792Z,60.20
2019-05-09T14:02:44.905Z,58.80
2019-05-09T14:05:12.459Z,60.80
2019-05-09T14:07:42.026Z,62.60
2019-05-09T14:10:11.722Z,61.60
2019-05-09T14:12:41.316Z,61.00
2019-05-09T14:15:10.970Z,61.80
2019-05-09T14:17:49.262Z,62.60
2019-05-09T14:20:11.819Z,62.80
2019-05-09T14:22:42.239Z,63.60
2019-05-09T14:25:12.057Z,66.40
2019-05-09T14:27:41.556Z,58.60
2019-05-09T14:30:11.375Z,58.90
2019-05-09T14:32:40.939Z,56.20
2019-05-09T14:35:10.570Z,58.10
2019-05-09T14:37:44.754Z,51.70
2019-05-09T14:40:14.324Z,51.20
2019-05-09T14:42:43.916Z,54.10
2019-05-09T14:45:13.735Z,55.50
2019-05-09T14:47:43.404Z,54.50
2019-05-09T14:50:13.042Z,52.30
2019-05-09T14:52:43.743Z,52.90
2019-05-09T14:55:13.393Z,52.70
2019-05-09T14:57:43.069Z,54.80
2019-05-09T15:00:14.444Z,51.30
2019-05-09T15:02:44.079Z,54.20
2019-05-09T15:05:13.768Z,52.40
2019-05-09T15:07:44.450Z,52.80
2019-05-09T15:10:13.131Z,51.90
2019-05-09T15:12:42.964Z,53.90
2019-05-09T15:15:12.767Z,53.60
2019-05-09T15:17:42.304Z,55.90
2019-05-09T15:20:14.379Z,56.80
2019-05-09T15:22:43.835Z,57.30
2019-05-09T15:25:13.508Z,56.40
2019-05-09T15:27:44.257Z,57.80
2019-05-09T15:30:13.136Z,57.30
2019-05-09T15:32:42.741Z,57.70
2019-05-09T15:35:12.405Z,57.10
2019-05-09T15:37:42.145Z,58.00
2019-05-09T15:40:12.069Z,59.10
2019-05-09T15:42:41.617Z,57.60
2019-05-09T15:45:11.523Z,57.00
2019-05-09T15:47:41.081Z,58.70
2019-05-09T15:50:20.067Z,59.00
2019-05-09T15:52:44.937Z,60.90
2019-05-09T15:55:14.577Z,59.40
2019-05-09T15:57:44.211Z,61.20
2019-05-09T16:00:15.198Z,61.00
2019-05-09T16:02:44.827Z,59.70
2019-05-09T16:05:14.592Z,59.90
2019-05-09T16:07:44.141Z,61.30
2019-05-09T16:10:13.940Z,61.20
2019-05-09T16:12:43.509Z,61.30
2019-05-09T16:15:13.659Z,62.30
2019-05-09T16:17:43.291Z,60.60
2019-05-09T16:20:22.961Z,62.00
2019-05-09T16:22:48.253Z,62.60
2019-05-09T16:25:18.769Z,63.10
2019-05-09T16:27:48.786Z,62.00
2019-05-09T16:30:18.557Z,62.50
2019-05-09T16:32:48.204Z,61.90
2019-05-09T16:35:18.319Z,63.00
2019-05-09T16:38:01.797Z,61.20
2019-05-09T16:40:21.131Z,60.70
2019-05-09T16:42:51.321Z,61.40
2019-05-09T16:45:21.001Z,60.90
2019-05-09T16:47:50.715Z,61.60
2019-05-09T16:50:20.968Z,61.90
2019-05-09T16:52:50.659Z,61.20
2019-05-09T16:55:21.780Z,61.80
2019-05-09T16:57:51.288Z,61.80
2019-05-09T17:00:33.187Z,62.20
2019-05-09T17:03:04.194Z,63.30
2019-05-09T17:05:33.880Z,63.60
2019-05-09T17:08:03.746Z,64.50
2019-05-09T17:10:33.456Z,63.40
2019-05-09T17:13:04.719Z,64.90
2019-05-09T17:15:34.278Z,58.80
2019-05-09T17:18:03.957Z,59.20
2019-05-09T17:20:37.833Z,60.30
2019-05-09T17:23:14.481Z,61.20
2019-05-09T17:25:39.990Z,62.50
2019-05-09T17:28:09.634Z,61.10
2019-05-09T17:30:39.487Z,62.90
2019-05-09T17:33:15.557Z,64.80
2019-05-09T17:35:48.296Z,66.70
2019-05-09T17:38:18.165Z,67.70
2019-05-09T17:40:48.502Z,70.30
2019-05-09T17:43:18.524Z,74.80
2019-05-09T17:45:50.161Z,77.80
2019-05-09T17:48:19.758Z,80.60
2019-05-09T17:50:49.422Z,81.80
2019-05-09T17:53:18.940Z,83.40
2019-05-09T17:55:48.435Z,85.40
2019-05-09T17:58:27.175Z,86.90
2019-05-09T18:00:49.282Z,87.10
2019-05-09T18:03:18.868Z,88.80
2019-05-09T18:05:49.607Z,89.80
2019-05-09T18:08:19.277Z,90.10
2019-05-09T18:10:49.724Z,90.10
2019-05-09T18:13:23.851Z,89.80
2019-05-09T18:15:50.452Z,89.90
2019-05-09T18:18:20.115Z,89.00
2019-05-09T18:20:49.734Z,89.20
2019-05-09T18:23:19.240Z,89.20
2019-05-09T18:25:49.560Z,88.90
2019-05-09T18:28:20.472Z,89.40
2019-05-09T18:30:50.029Z,90.10
2019-05-09T18:33:21.257Z,89.60
2019-05-09T18:35:50.757Z,90.00
2019-05-09T18:38:23.405Z,88.70
2019-05-09T18:40:52.981Z,87.20
2019-05-09T18:43:22.614Z,88.50
2019-05-09T18:45:52.115Z,87.60
2019-05-09T18:48:24.265Z,87.80
2019-05-09T18:50:53.877Z,87.70
2019-05-09T18:53:23.434Z,87.80
2019-05-09T18:55:52.990Z,87.50
2019-05-09T18:58:22.703Z,87.10
2019-05-09T19:00:52.738Z,87.00
2019-05-09T19:03:22.540Z,86.80
2019-05-09T19:05:52.198Z,86.80
2019-05-09T19:08:21.692Z,87.50
2019-05-09T19:10:52.320Z,87.90
2019-05-09T19:13:22.160Z,89.10
2019-05-09T19:16:09.929Z,89.20
2019-05-09T19:18:41.062Z,89.80
2019-05-09T19:21:13.129Z,90.10
2019-05-09T19:23:42.773Z,90.20
2019-05-09T19:26:13.953Z,90.50
2019-05-09T19:28:43.688Z,90.70
2019-05-09T19:31:13.196Z,90.70
2019-05-09T19:33:42.860Z,90.80
2019-05-09T19:36:12.435Z,91.00
2019-05-09T19:38:42.010Z,91.00
2019-05-09T19:41:11.571Z,91.30
2019-05-09T19:43:41.046Z,91.40
2019-05-09T19:46:10.576Z,91.50
2019-05-09T19:48:40.176Z,91.90
2019-05-09T19:51:09.645Z,91.80
2019-05-09T19:53:40.808Z,91.80
2019-05-09T19:56:10.385Z,91.50
2019-05-09T19:58:39.948Z,91.70
2019-05-09T20:01:09.526Z,91.70
2019-05-09T20:03:39.236Z,91.40
2019-05-09T20:06:08.956Z,91.30
2019-05-09T20:08:38.554Z,91.20
2019-05-09T20:11:12.773Z,91.30
2019-05-09T20:13:59.392Z,91.60
2019-05-09T20:16:33.336Z,91.70
2019-05-09T20:19:05.675Z,91.70
2019-05-09T20:21:35.204Z,91.90
2019-05-09T20:24:09.015Z,92.20
2019-05-09T20:26:37.115Z,91.90
2019-05-09T20:29:06.913Z,92.30
2019-05-09T20:31:37.912Z,92.10
2019-05-09T20:34:09.007Z,92.20
2019-05-09T20:36:38.712Z,92.20
2019-05-09T20:39:08.628Z,92.20
2019-05-09T20:41:38.448Z,92.10
2019-05-09T20:44:08.934Z,91.90
2019-05-09T20:46:38.717Z,92.10
2019-05-09T20:49:08.494Z,92.00
2019-05-09T20:51:38.255Z,91.90
2019-05-09T20:54:20.016Z,92.00
2019-05-09T20:56:39.718Z,92.00
2019-05-09T20:59:09.378Z,91.80
2019-05-09T21:01:41.962Z,92.00
2019-05-09T21:04:11.671Z,92.10
2019-05-09T21:06:41.425Z,92.10
2019-05-09T21:09:11.297Z,92.00
2019-05-09T21:11:42.645Z,92.20
2019-05-09T21:14:14.050Z,91.90
2019-05-09T21:16:44.311Z,92.10
2019-05-09T21:19:14.263Z,91.80
2019-05-09T21:21:44.275Z,91.90
2019-05-09T21:24:14.097Z,91.70
2019-05-09T21:26:43.865Z,91.70
2019-05-09T21:29:13.632Z,91.70
2019-05-09T21:31:43.387Z,92.00
2019-05-09T21:34:13.130Z,91.90
2019-05-09T21:36:42.789Z,91.90
2019-05-09T21:39:12.368Z,92.10
2019-05-09T21:41:41.964Z,91.70
2019-05-09T21:44:11.459Z,91.60
2019-05-09T21:46:41.071Z,91.40
2019-05-09T21:49:10.549Z,91.40
2019-05-09T21:51:40.099Z,91.30
2019-05-09T21:54:09.810Z,91.40
2019-05-09T21:56:39.388Z,91.30
2019-05-09T21:59:11.058Z,91.40
2019-05-09T22:01:41.170Z,91.40
2019-05-09T22:04:10.740Z,91.70
2019-05-09T22:06:40.321Z,91.60
2019-05-09T22:09:11.239Z,91.80
2019-05-09T22:11:40.952Z,91.60
2019-05-09T22:14:10.516Z,91.70
2019-05-09T22:16:40.040Z,91.60
2019-05-09T22:19:09.717Z,92.00
2019-05-09T22:21:39.268Z,91.60
2019-05-09T22:24:08.860Z,91.50
2019-05-09T22:26:38.380Z,91.30
2019-05-09T22:29:07.843Z,91.10
2019-05-09T22:31:37.353Z,91.20
2019-05-09T22:34:06.837Z,90.70
2019-05-09T22:36:37.869Z,90.70
2019-05-09T22:39:08.282Z,90.60
2019-05-09T22:41:37.751Z,90.10
2019-05-09T22:44:07.245Z,90.40
2019-05-09T22:46:36.794Z,90.40
2019-05-09T22:49:06.271Z,90.30
2019-05-09T22:51:35.768Z,89.70
2019-05-09T22:54:12.684Z,88.90
2019-05-09T22:56:36.433Z,88.50
2019-05-09T22:59:07.540Z,88.50
2019-05-09T23:01:38.031Z,90.00
2019-05-09T23:04:10.305Z,90.20
2019-05-09T23:06:39.769Z,90.10
2019-05-09T23:09:10.918Z,90.40
2019-05-09T23:11:40.472Z,91.00
2019-05-09T23:14:09.948Z,91.10
2019-05-09T23:16:41.200Z,91.00
2019-05-09T23:19:10.852Z,91.00
2019-05-09T23:21:40.321Z,91.10
2019-05-09T23:24:26.526Z,91.10
2019-05-09T23:26:42.692Z,91.20
2019-05-09T23:29:12.114Z,91.10
2019-05-09T23:31:43.218Z,91.00
2019-05-09T23:34:12.705Z,90.80
2019-05-09T23:36:42.188Z,90.80
2019-05-09T23:39:15.798Z,91.10
2019-05-09T23:41:47.078Z,90.80
2019-05-09T23:44:16.575Z,91.00
2019-05-09T23:46:46.067Z,90.80
2019-05-09T23:49:15.511Z,90.80
2019-05-09T23:51:45.353Z,91.10
2019-05-09T23:54:45.046Z,90.80
2019-05-09T23:57:25.059Z,90.50
